Main page
METAR-TAF:

METAR-TAF

Airports :

Deauville – Normandie Airport

Deauville, France

latitude: 49-21-55N, longitude: 000-09-16E, elevation: 146 m

Current weather observation

The report was made 36 minutes ago, at 23:30 UTC
Wind 3 kt from the West
Temperature 1°C
Humidity 100%
Pressure 1012 hPa
Visibility: 3000 m
Scattered clouds at a height of 4000 ft
Broken clouds at a height of 5400 ft
Broken clouds at a height of 24000 ft
mist

METAR: LFRG 172330Z AUTO 26003KT 3000 R30/1200U BR SCT040 BKN054 BKN240 01/01 Q1012

Time: 01:06 (00:06 UTC)

Forecast

The report was made 3 hours and 52 minutes ago, at 20:14 UTC
Forecast valid from 17 at 20 UTC to 17 at 24 UTC
Wind 3 kt from variable directions
Visibility: 3000 m
Scattered clouds at a height of 4000 ft
mist
Temporary
from 17 at 20 UTC to 17 at 24 UTC
Visibility: 0500 m
fog

TAF: LFRG 172014Z 1720/1724 VRB03KT 3000 BR SCT040 TEMPO 1720/1724 0500 FG

Weather observations and forecasts of more than 4000 airports (METAR and TAF reports).

The available stations are represented by yellow and red dots on the map.

Hover mouse over dot to see the name of the station.

Then click to see weather observations and forecasts.

To change the map : click on the green buttons with a black cross to zoom in, on the green button with a dash to zoom out, or on the green arrows for adjacent maps.


METAR-TAF: